Time;durP1;ratioP1;P1;durP2;ratioP2;P2;SDS_P1;SDS_P2;PMS_P1;PMS_P2;Temp;Humidity;BMP_temperature;BMP_pressure;BME280_temperature;BME280_humidity;BME280_pressure;Samples;Min_cycle;Max_cycle;Signal;HPM_P1;HPM_P2
2021/04/12 01:30:15;;;;;;;8.83;7.87;;;;;;;0.21;84.64;95798.31;5044217;28;20215;-82
2021/04/12 01:33:10;;;;;;;8.93;7.50;;;;;;;0.19;85.06;95797.56;5044637;28;20197;-82
2021/04/12 01:35:57;;;;;;;9.63;8.57;;;;;;;0.15;85.05;95800.34;5008362;28;20250;-80
2021/04/12 01:38:37;;;;;;;10.40;8.43;;;;;;;0.09;85.03;95806.63;5007625;28;20199;-82
2021/04/12 01:41:14;;;;;;;51.70;10.73;;;;;;;0.00;85.71;95807.06;5009043;28;20178;-81
2021/04/12 01:44:04;;;;;;;20.50;10.30;;;;;;;-0.03;86.52;95813.13;5024879;28;20199;-80
2021/04/12 01:46:51;;;;;;;9.93;8.50;;;;;;;0.01;85.70;95818.94;5007104;28;20236;-80
2021/04/12 01:49:47;;;;;;;10.13;8.67;;;;;;;-0.05;86.10;95824.34;5007388;28;20209;-81
2021/04/12 01:52:34;;;;;;;9.30;8.30;;;;;;;-0.17;85.90;95832.63;5027358;28;20178;-81
2021/04/12 01:55:21;;;;;;;10.97;8.93;;;;;;;-0.03;85.38;95856.53;5027598;28;20211;-81
2021/04/12 01:58:08;;;;;;;10.47;8.63;;;;;;;-0.02;85.27;95847.16;5027148;28;20186;-81
2021/04/12 02:01:11;;;;;;;11.03;8.80;;;;;;;-0.05;85.12;95854.97;5029010;28;20186;-80
2021/04/12 02:03:45;;;;;;;9.80;7.20;;;;;;;-0.07;85.21;95859.34;5028087;28;20195;-81
2021/04/12 02:06:49;;;;;;;13.63;7.80;;;;;;;-0.03;84.64;95866.75;5026493;28;20186;-82
2021/04/12 02:09:27;;;;;;;7.60;5.83;;;;;;;-0.01;84.59;95866.69;5026611;28;20187;-82
2021/04/12 02:12:10;;;;;;;9.03;6.40;;;;;;;-0.04;84.69;95874.50;5026679;28;20212;-81
2021/04/12 02:15:01;;;;;;;10.63;5.87;;;;;;;-0.09;84.57;95863.66;5026249;28;20562;-82
2021/04/12 02:17:55;;;;;;;9.07;6.40;;;;;;;-0.15;84.56;95857.16;5009714;28;20184;-80
2021/04/12 02:20:25;;;;;;;9.43;6.87;;;;;;;-0.04;84.83;95859.19;5019706;28;20198;-81
2021/04/12 02:23:03;;;;;;;8.07;6.60;;;;;;;0.02;84.84;95871.66;5009801;28;20279;-81
2021/04/12 02:26:00;;;;;;;9.10;6.30;;;;;;;0.05;85.06;95884.25;5025424;28;20244;-81
2021/04/12 02:28:48;;;;;;;12.30;7.43;;;;;;;-0.22;85.59;95883.88;5025932;28;20244;-81
2021/04/12 02:31:30;;;;;;;6.00;4.97;;;;;;;-0.33;85.99;95868.25;5008377;28;20621;-81
2021/04/12 02:34:21;;;;;;;4.87;4.30;;;;;;;-0.41;86.14;95876.28;5008701;28;20298;-81
2021/04/12 02:37:07;;;;;;;5.20;4.70;;;;;;;-0.25;86.00;95878.09;5024557;28;20651;-81
2021/04/12 02:40:10;;;;;;;5.60;5.00;;;;;;;-0.19;85.95;95882.91;5023890;28;20183;-81
2021/04/12 02:43:03;;;;;;;5.60;5.00;;;;;;;-0.14;85.62;95888.63;5024143;28;20200;-81
2021/04/12 02:45:37;;;;;;;5.00;4.07;;;;;;;-0.18;85.62;95884.53;5023409;28;20202;-80
2021/04/12 02:48:48;;;;;;;5.43;4.70;;;;;;;-0.17;85.97;95886.22;5023623;28;20285;-82
2021/04/12 02:51:23;;;;;;;8.57;6.10;;;;;;;-0.14;86.18;95896.28;4976656;28;20855;-80
2021/04/12 02:54:07;;;;;;;12.90;5.90;;;;;;;-0.18;86.17;95882.00;5006231;28;20225;-82
2021/04/12 02:56:41;;;;;;;10.30;5.47;;;;;;;-0.21;85.78;95893.19;5023733;28;20190;-81
2021/04/12 02:59:25;;;;;;;6.33;5.50;;;;;;;-0.17;86.01;95893.88;5022257;28;20252;-82
2021/04/12 03:02:25;;;;;;;5.73;4.83;;;;;;;-0.08;85.93;95899.38;5023260;28;20182;-82
2021/04/12 03:05:07;;;;;;;9.33;5.27;;;;;;;-0.03;85.67;95914.44;5021683;28;20213;-82
2021/04/12 03:08:09;;;;;;;11.07;4.80;;;;;;;0.10;85.45;95923.19;5005142;28;20182;-81
2021/04/12 03:10:57;;;;;;;7.83;5.53;;;;;;;0.10;85.46;95935.94;5023453;28;20185;-81
2021/04/12 03:13:53;;;;;;;192.33;13.67;;;;;;;-0.12;85.89;95928.47;5020717;28;20208;-80
2021/04/12 03:16:40;;;;;;;52.50;7.30;;;;;;;-0.01;85.92;95930.50;5002707;28;20193;-80
2021/04/12 03:19:23;;;;;;;42.10;7.40;;;;;;;-0.09;85.98;95920.69;5019538;28;20190;-81
2021/04/12 03:22:05;;;;;;;40.23;6.43;;;;;;;-0.10;85.90;95925.84;5020882;28;20241;-80
2021/04/12 03:24:55;;;;;;;31.33;7.90;;;;;;;-0.01;86.09;95921.13;5002457;28;20234;-80
2021/04/12 03:27:52;;;;;;;13.07;7.07;;;;;;;-0.02;85.68;95929.69;5019116;28;20198;-80
2021/04/12 03:30:52;;;;;;;18.97;6.73;;;;;;;-0.01;85.79;95939.00;5002627;28;20178;-82
2021/04/12 03:33:34;;;;;;;44.20;7.90;;;;;;;0.01;85.95;95943.22;4998997;28;20278;-81
2021/04/12 03:36:25;;;;;;;59.13;7.63;;;;;;;0.04;85.75;95935.41;5036760;28;20194;-80
2021/04/12 03:39:09;;;;;;;91.20;10.07;;;;;;;-0.03;86.08;95924.66;5020706;28;20175;-80
2021/04/12 03:42:05;;;;;;;52.57;7.40;;;;;;;0.01;85.91;95933.84;5022194;28;20258;-82
2021/04/12 03:44:43;;;;;;;230.03;17.93;;;;;;;-0.12;86.23;95945.53;5020892;28;20207;-81
2021/04/12 03:47:18;;;;;;;44.13;7.67;;;;;;;-0.07;86.48;95941.03;5020545;28;20608;-81
2021/04/12 03:50:18;;;;;;;49.37;7.07;;;;;;;-0.02;86.29;95949.28;5020300;28;20182;-82
2021/04/12 03:53:28;;;;;;;57.47;8.37;;;;;;;0.03;86.00;95960.13;5020731;28;20200;-80
2021/04/12 03:56:22;;;;;;;16.57;4.97;;;;;;;0.02;85.85;95968.69;5001318;28;20619;-81
2021/04/12 03:58:58;;;;;;;23.10;5.37;;;;;;;-0.06;85.26;95973.31;5003975;28;20183;-80
2021/04/12 04:01:41;;;;;;;19.17;4.83;;;;;;;-0.07;85.90;95971.66;5003670;28;20183;-81
2021/04/12 04:04:26;;;;;;;13.20;3.93;;;;;;;0.01;85.79;95978.97;5019957;28;20274;-80
2021/04/12 04:07:00;;;;;;;21.57;4.60;;;;;;;-0.10;85.83;95987.94;5021175;28;20248;-82
2021/04/12 04:09:50;;;;;;;3.73;3.43;;;;;;;-0.07;85.51;95990.38;5020656;28;20211;-80
2021/04/12 04:12:41;;;;;;;42.67;6.57;;;;;;;-0.37;85.92;95997.72;5019829;28;20210;-81
2021/04/12 04:15:29;;;;;;;5.87;4.50;;;;;;;-0.21;86.24;96000.38;5003051;28;20211;-80
2021/04/12 04:18:00;;;;;;;17.73;5.83;;;;;;;-0.24;85.93;95999.72;5004300;28;20545;-81
2021/04/12 04:20:41;;;;;;;6.67;5.70;;;;;;;-0.20;85.70;96017.34;5020624;28;20203;-80
2021/04/12 04:23:39;;;;;;;15.67;9.70;;;;;;;-0.19;85.89;96007.97;5004271;28;20321;-81
2021/04/12 04:26:04;;;;;;;9.07;5.83;;;;;;;-0.28;85.43;96012.59;5020675;28;20194;-79
2021/04/12 04:28:30;;;;;;;6.97;5.53;;;;;;;-0.31;86.10;96019.59;5019953;28;20194;-80
2021/04/12 04:31:25;;;;;;;69.33;8.73;;;;;;;-0.43;86.43;96018.41;5021850;28;20169;-81
2021/04/12 04:34:14;;;;;;;11.83;5.97;;;;;;;-0.26;86.18;96020.22;5003450;28;20211;-80
2021/04/12 04:36:58;;;;;;;9.53;6.83;;;;;;;-0.29;85.77;96036.47;5020146;28;20255;-80
2021/04/12 04:39:45;;;;;;;10.00;5.97;;;;;;;-0.25;85.74;96033.78;5003667;28;20217;-80
2021/04/12 04:42:18;;;;;;;13.23;6.00;;;;;;;-0.35;85.72;96039.31;5021120;28;20167;-80
2021/04/12 04:44:50;;;;;;;53.43;10.13;;;;;;;-0.36;85.99;96037.63;5002892;28;20199;-82
2021/04/12 04:47:34;;;;;;;31.40;9.13;;;;;;;-0.40;85.56;96041.25;5035226;28;20182;-82
2021/04/12 04:50:05;;;;;;;79.23;12.47;;;;;;;-0.46;86.17;96056.00;5003397;28;20182;-81
2021/04/12 04:52:40;;;;;;;31.27;7.67;;;;;;;-0.37;86.34;96050.47;5035935;28;20182;-79
2021/04/12 04:55:24;;;;;;;7.07;5.73;;;;;;;-0.31;85.87;96066.34;5019808;28;20213;-81
2021/04/12 04:58:15;;;;;;;8.93;5.60;;;;;;;-0.46;86.13;96067.03;5020824;28;20247;-80
2021/04/12 05:01:04;;;;;;;8.47;7.30;;;;;;;-0.43;86.04;96069.47;4993833;28;20187;-81
2021/04/12 05:04:06;;;;;;;7.43;6.53;;;;;;;-0.41;85.60;96062.56;5002437;28;20187;-80
2021/04/12 05:07:01;;;;;;;8.30;7.03;;;;;;;-0.50;85.77;96069.78;5012732;28;20185;-79
2021/04/12 05:09:45;;;;;;;9.47;8.00;;;;;;;-0.43;85.91;96072.00;5017263;28;20261;-81
2021/04/12 05:12:19;;;;;;;10.73;8.17;;;;;;;-0.46;85.71;96074.69;5020727;28;20166;-81
2021/04/12 05:15:21;;;;;;;10.27;8.63;;;;;;;-0.32;85.48;96089.38;4998982;28;20233;-79
2021/04/12 05:18:12;;;;;;;9.97;8.30;;;;;;;-0.34;85.55;96094.56;4986596;28;20195;-80
2021/04/12 05:20:59;;;;;;;10.00;8.87;;;;;;;-0.27;85.12;96097.66;4976046;28;20186;-80
2021/04/12 05:23:31;;;;;;;10.43;8.77;;;;;;;-0.11;84.97;96106.28;5021210;28;20185;-81
2021/04/12 05:26:03;;;;;;;10.30;8.77;;;;;;;-0.04;85.00;96109.38;5007630;28;20190;-80
2021/04/12 05:28:42;;;;;;;9.10;8.20;;;;;;;-0.05;84.37;96100.91;5023677;28;20249;-80
2021/04/12 05:31:25;;;;;;;11.90;9.43;;;;;;;-0.10;84.49;96107.94;5007767;28;20182;-80
2021/04/12 05:34:14;;;;;;;21.93;14.73;;;;;;;-0.10;84.73;96117.31;5007702;28;20222;-78
2021/04/12 05:36:46;;;;;;;10.07;8.47;;;;;;;-0.06;84.56;96129.06;5006507;28;20175;-80
2021/04/12 05:39:24;;;;;;;10.53;7.90;;;;;;;-0.10;84.29;96127.53;5025309;28;20186;-81
2021/04/12 05:42:08;;;;;;;9.37;7.70;;;;;;;-0.07;84.34;96130.78;4988495;28;20614;-80
2021/04/12 05:44:58;;;;;;;10.07;8.67;;;;;;;-0.19;84.82;96138.16;5004049;28;20639;-80
2021/04/12 05:47:44;;;;;;;11.17;9.63;;;;;;;-0.09;84.50;96141.94;5005573;28;20180;-80
2021/04/12 05:50:14;;;;;;;10.13;8.40;;;;;;;-0.30;83.86;96148.84;5003331;28;20193;-79
2021/04/12 05:52:42;;;;;;;11.10;9.33;;;;;;;-0.31;84.92;96148.00;5003667;28;20548;-80
2021/04/12 05:55:11;;;;;;;13.53;9.40;;;;;;;-0.15;84.60;96147.34;5003869;28;20212;-79
2021/04/12 05:57:52;;;;;;;13.37;10.70;;;;;;;-0.12;84.64;96148.03;5005214;28;20176;-80
2021/04/12 06:00:20;;;;;;;13.77;10.93;;;;;;;-0.07;84.63;96158.03;5005112;28;20203;-80
2021/04/12 06:02:53;;;;;;;12.90;10.67;;;;;;;0.01;84.57;96167.94;5018748;28;20195;-80
2021/04/12 06:05:25;;;;;;;11.50;9.97;;;;;;;0.08;84.11;96165.00;5023774;28;20275;-80
2021/04/12 06:08:28;;;;;;;10.57;9.47;;;;;;;0.09;84.12;96171.78;4997133;28;20178;-80
2021/04/12 06:11:15;;;;;;;10.70;9.17;;;;;;;0.05;83.68;96184.75;5021809;28;20180;-80
2021/04/12 06:14:19;;;;;;;10.53;8.87;;;;;;;0.10;83.60;96183.66;5002214;28;20439;-79
2021/04/12 06:17:09;;;;;;;11.13;9.60;;;;;;;0.19;83.55;96183.25;4995309;28;20200;-79
2021/04/12 06:19:47;;;;;;;10.90;9.67;;;;;;;0.35;83.08;96187.63;5003601;28;20205;-81
2021/04/12 06:22:33;;;;;;;13.10;9.97;;;;;;;0.36;82.76;96190.16;4981514;28;20281;-83
2021/04/12 06:25:23;;;;;;;14.40;11.77;;;;;;;0.40;83.23;96190.81;4998990;28;20196;-81
2021/04/12 06:28:18;;;;;;;15.93;11.07;;;;;;;0.51;82.63;96203.94;4998187;28;20191;-79
2021/04/12 06:30:58;;;;;;;14.10;10.77;;;;;;;0.88;82.01;96202.19;5016273;28;20414;-78
2021/04/12 06:33:29;;;;;;;13.13;10.10;;;;;;;0.89;80.73;96203.88;4997212;28;20180;-78
2021/04/12 06:36:25;;;;;;;13.43;10.40;;;;;;;0.74;81.04;96210.53;4998802;28;20179;-80
2021/04/12 06:38:59;;;;;;;14.20;10.93;;;;;;;0.64;81.03;96212.69;4981871;28;20182;-81
2021/04/12 06:41:46;;;;;;;14.03;11.20;;;;;;;0.72;81.24;96223.41;5005317;28;20237;-78
2021/04/12 06:44:33;;;;;;;13.37;11.23;;;;;;;0.74;81.20;96225.88;5002839;28;20218;-79
2021/04/12 06:47:33;;;;;;;16.00;11.77;;;;;;;0.84;80.92;96232.22;5035290;28;20195;-79
2021/04/12 06:50:36;;;;;;;13.53;11.33;;;;;;;0.90;80.72;96234.50;4998329;28;20195;-80
2021/04/12 06:53:31;;;;;;;17.47;11.60;;;;;;;1.11;79.74;96230.91;5026048;28;20182;-78
2021/04/12 06:55:58;;;;;;;14.97;11.50;;;;;;;1.13;79.42;96238.50;4998492;28;20175;-80
2021/04/12 06:58:35;;;;;;;14.67;11.90;;;;;;;1.12;79.25;96239.41;5015891;28;20586;-75
2021/04/12 07:01:31;;;;;;;13.60;11.40;;;;;;;1.29;79.08;96248.84;5031461;28;20179;-79
2021/04/12 07:04:21;;;;;;;15.10;11.27;;;;;;;1.32;78.18;96254.63;5019673;28;20221;-78
2021/04/12 07:07:11;;;;;;;14.70;11.57;;;;;;;1.63;77.23;96263.38;5001917;28;20207;-79
2021/04/12 07:09:45;;;;;;;17.23;11.77;;;;;;;1.70;76.86;96262.19;5032659;28;20183;-77
2021/04/12 07:12:17;;;;;;;15.07;10.87;;;;;;;1.73;76.37;96261.19;5013427;28;20186;-77
2021/04/12 07:15:15;;;;;;;13.10;10.43;;;;;;;1.77;75.93;96267.78;4981412;28;20204;-79
2021/04/12 07:18:18;;;;;;;12.50;9.97;;;;;;;1.59;76.98;96272.09;4983312;28;20243;-79
2021/04/12 07:21:28;;;;;;;14.37;10.87;;;;;;;1.68;76.65;96277.63;4997933;28;20218;-78
2021/04/12 07:24:33;;;;;;;15.43;11.80;;;;;;;1.77;76.06;96289.13;5004560;28;20446;-78
2021/04/12 07:27:16;;;;;;;15.87;11.50;;;;;;;1.70;76.21;96292.91;5028154;28;20180;-77
2021/04/12 07:29:54;;;;;;;15.20;11.07;;;;;;;1.85;76.85;96292.13;4999704;28;20194;-78
2021/04/12 07:32:50;;;;;;;15.17;10.97;;;;;;;1.75;76.29;96288.34;4996441;28;20176;-77
2021/04/12 07:35:32;;;;;;;14.43;10.33;;;;;;;1.77;76.27;96301.94;5008655;28;20642;-74
2021/04/12 07:38:19;;;;;;;14.07;10.67;;;;;;;1.75;76.70;96300.34;5002955;28;20194;-76
2021/04/12 07:41:39;;;;;;;16.80;11.67;;;;;;;1.63;76.65;96297.47;5012186;28;20195;-79
2021/04/12 07:44:23;;;;;;;13.43;10.27;;;;;;;1.63;76.86;96301.78;4999112;28;20683;-78
2021/04/12 07:47:26;;;;;;;17.33;10.97;;;;;;;1.40;77.54;96308.00;5016711;28;20191;-74
2021/04/12 07:50:02;;;;;;;15.43;10.90;;;;;;;1.48;77.65;96311.03;5015146;28;20198;-81
2021/04/12 07:52:58;;;;;;;17.33;10.63;;;;;;;1.47;78.00;96329.00;5000222;28;20634;-78
2021/04/12 07:55:52;;;;;;;15.93;10.70;;;;;;;1.73;76.77;96327.75;5000737;28;20264;-80
2021/04/12 07:58:51;;;;;;;12.17;9.97;;;;;;;1.60;75.35;96336.03;5016224;28;20253;-81
2021/04/12 08:01:50;;;;;;;14.77;10.80;;;;;;;1.83;75.96;96327.22;5013493;28;20647;-79
2021/04/12 08:04:34;;;;;;;16.37;12.37;;;;;;;1.96;75.90;96332.59;5000736;28;20199;-81
2021/04/12 08:07:50;;;;;;;12.70;10.57;;;;;;;2.14;74.39;96346.22;5016600;28;20180;-80
2021/04/12 08:10:40;;;;;;;12.97;9.90;;;;;;;2.18;75.37;96340.03;5013125;28;20202;-78
2021/04/12 08:13:30;;;;;;;13.87;10.00;;;;;;;2.27;73.89;96337.81;5029553;28;20187;-77
2021/04/12 08:16:13;;;;;;;13.90;9.90;;;;;;;2.41;73.21;96324.31;5015857;28;20195;-80
2021/04/12 08:18:56;;;;;;;21.47;13.33;;;;;;;2.58;73.84;96341.38;5031198;28;20708;-80
2021/04/12 08:21:42;;;;;;;40.10;19.77;;;;;;;2.52;73.59;96339.97;5014937;28;20174;-77
2021/04/12 08:24:32;;;;;;;36.60;17.90;;;;;;;2.58;72.61;96338.00;5004178;28;20202;-77
2021/04/12 08:27:25;;;;;;;15.23;11.23;;;;;;;2.89;71.95;96343.16;5019832;28;20251;-78
2021/04/12 08:30:29;;;;;;;17.47;11.63;;;;;;;2.90;71.61;96347.38;5017464;28;20249;-80
2021/04/12 08:33:31;;;;;;;14.00;9.97;;;;;;;2.98;70.54;96345.22;4998476;28;20570;-74
2021/04/12 08:36:24;;;;;;;11.53;8.37;;;;;;;2.82;69.98;96347.78;5019337;28;20194;-78
2021/04/12 08:39:08;;;;;;;10.57;7.43;;;;;;;2.70;71.26;96360.44;5015789;28;20374;-78
2021/04/12 08:41:42;;;;;;;12.17;8.70;;;;;;;2.53;72.02;96376.69;5015481;28;20179;-80
2021/04/12 08:44:11;;;;;;;15.73;8.87;;;;;;;2.45;72.30;96366.81;4998118;28;20208;-80
2021/04/12 08:47:03;;;;;;;13.20;9.40;;;;;;;2.89;72.21;96361.13;4996482;28;20184;-80
2021/04/12 08:49:45;;;;;;;11.33;8.17;;;;;;;3.11;70.85;96353.13;4995389;28;20772;-78
2021/04/12 08:52:32;;;;;;;11.40;9.50;;;;;;;3.18;69.33;96366.44;5010983;28;20223;-73
2021/04/12 08:55:22;;;;;;;12.13;7.97;;;;;;;3.46;70.10;96371.75;4993657;28;20211;-80
2021/04/12 08:58:30;;;;;;;11.50;7.70;;;;;;;3.55;69.23;96376.38;5000203;28;20315;-73
2021/04/12 09:01:28;;;;;;;9.80;7.33;;;;;;;3.33;69.19;96378.44;5002056;28;20629;-75
2021/04/12 09:04:02;;;;;;;10.03;8.07;;;;;;;3.34;69.27;96368.09;4990207;28;20198;-80
2021/04/12 09:06:51;;;;;;;11.10;8.03;;;;;;;3.36;69.34;96370.59;5015620;28;20214;-80
2021/04/12 09:09:56;;;;;;;9.90;7.13;;;;;;;3.31;68.32;96364.88;4999425;28;20358;-81
2021/04/12 09:12:33;;;;;;;9.47;8.27;;;;;;;3.45;67.78;96364.94;4978697;28;20546;-79
2021/04/12 09:15:01;;;;;;;8.77;7.57;;;;;;;3.43;68.12;96366.75;5031676;28;20225;-78
2021/04/12 09:17:42;;;;;;;8.60;7.33;;;;;;;3.66;67.67;96378.34;5013309;28;20190;-81
2021/04/12 09:20:36;;;;;;;7.17;6.07;;;;;;;3.70;67.45;96385.78;4998295;28;20210;-78
2021/04/12 09:23:39;;;;;;;7.83;6.33;;;;;;;3.39;67.24;96390.94;5002408;28;20181;-78
2021/04/12 09:26:41;;;;;;;9.30;6.93;;;;;;;3.64;67.17;96390.44;5012730;28;20265;-76
2021/04/12 09:29:22;;;;;;;10.60;6.53;;;;;;;3.61;67.45;96385.47;5011655;28;20190;-77
2021/04/12 09:32:26;;;;;;;8.13;6.03;;;;;;;3.67;67.62;96396.22;4995415;28;20628;-77
2021/04/12 09:35:10;;;;;;;8.43;5.97;;;;;;;3.53;65.72;96393.56;4973543;28;20270;-78
2021/04/12 09:37:57;;;;;;;6.77;5.70;;;;;;;3.45;65.09;96400.06;5008828;28;20197;-75
2021/04/12 09:40:25;;;;;;;8.37;5.77;;;;;;;3.59;64.09;96406.09;5008725;28;20176;-78
2021/04/12 09:43:12;;;;;;;7.53;6.00;;;;;;;3.85;65.25;96403.84;5008457;28;20180;-79
2021/04/12 09:46:11;;;;;;;6.93;5.57;;;;;;;4.18;65.24;96409.63;4997965;28;20612;-77
2021/04/12 09:48:47;;;;;;;9.10;6.97;;;;;;;4.52;64.54;96405.13;5012877;28;20190;-81
2021/04/12 09:51:29;;;;;;;12.53;7.77;;;;;;;4.77;64.03;96413.06;4995903;28;20561;-79
2021/04/12 09:54:13;;;;;;;11.87;7.90;;;;;;;4.96;62.74;96411.97;4996055;28;20211;-80
2021/04/12 09:57:10;;;;;;;10.60;6.37;;;;;;;4.40;62.62;96414.38;5007192;28;20180;-73
2021/04/12 10:00:13;;;;;;;11.40;6.93;;;;;;;4.29;63.84;96415.91;4991962;28;20194;-73
2021/04/12 10:03:16;;;;;;;6.50;5.50;;;;;;;4.13;62.52;96414.19;4991918;28;20175;-78
2021/04/12 10:06:18;;;;;;;8.53;5.80;;;;;;;4.23;63.09;96420.47;4994118;28;20708;-80
2021/04/12 10:09:24;;;;;;;6.40;4.73;;;;;;;4.07;63.10;96417.16;5011244;28;20453;-77
2021/04/12 10:12:05;;;;;;;7.37;4.60;;;;;;;3.47;62.62;96429.88;5009921;28;20205;-79
2021/04/12 10:14:32;;;;;;;30.67;16.47;;;;;;;3.48;65.68;96426.41;5004554;28;20678;-79
2021/04/12 10:17:01;;;;;;;10.63;7.13;;;;;;;3.45;65.49;96430.88;5014267;28;20241;-75
2021/04/12 10:19:34;;;;;;;28.73;14.67;;;;;;;3.50;66.75;96439.16;4994868;28;20208;-76
2021/04/12 10:22:03;;;;;;;19.67;14.07;;;;;;;3.39;66.53;96445.69;5000210;28;20189;-76
2021/04/12 10:24:47;;;;;;;13.53;10.53;;;;;;;3.82;65.93;96440.81;4998528;28;20199;-72
2021/04/12 10:27:24;;;;;;;8.20;6.13;;;;;;;3.97;64.10;96439.09;5013632;28;20183;-83
2021/04/12 10:29:55;;;;;;;8.97;5.50;;;;;;;4.26;64.31;96435.75;4994080;28;20183;-70
2021/04/12 10:32:27;;;;;;;10.00;5.63;;;;;;;4.27;63.40;96426.28;4978456;28;20184;-72
2021/04/12 10:35:00;;;;;;;6.00;4.50;;;;;;;4.55;61.81;96428.09;4980360;28;20356;-73
2021/04/12 10:37:34;;;;;;;7.87;4.97;;;;;;;4.94;61.52;96422.31;5012768;28;20182;-70
2021/04/12 10:40:09;;;;;;;6.60;4.50;;;;;;;5.06;60.23;96420.78;4996632;28;20259;-74
2021/04/12 10:42:38;;;;;;;5.37;3.83;;;;;;;5.19;56.05;96423.44;4980527;28;20179;-71
2021/04/12 10:45:17;;;;;;;9.80;5.40;;;;;;;5.28;57.43;96426.25;5013428;28;20623;-72
2021/04/12 10:47:54;;;;;;;6.93;4.50;;;;;;;5.46;59.22;96418.31;4980439;28;20198;-71
2021/04/12 10:50:52;;;;;;;6.27;4.00;;;;;;;5.06;57.25;96413.06;4996889;28;20258;-72
2021/04/12 10:53:29;;;;;;;7.30;3.77;;;;;;;4.62;58.82;96423.41;5013924;28;20734;-72
2021/04/12 10:56:11;;;;;;;7.83;4.00;;;;;;;4.53;59.36;96430.75;5013607;28;20214;-76
2021/04/12 10:59:12;;;;;;;7.10;4.07;;;;;;;4.09;61.96;96428.16;4993525;28;20289;-72
2021/04/12 11:01:45;;;;;;;5.57;4.00;;;;;;;4.18;61.08;96430.22;4994572;28;20248;-75
2021/04/12 11:04:42;;;;;;;8.00;3.83;;;;;;;4.47;58.82;96423.38;5009510;28;20662;-73
2021/04/12 11:07:35;;;;;;;6.03;3.30;;;;;;;4.20;57.22;96428.38;4994458;28;20211;-71
2021/04/12 11:10:19;;;;;;;6.30;3.30;;;;;;;4.51;58.02;96424.88;5000154;28;20195;-71
2021/04/12 11:12:54;;;;;;;4.73;2.67;;;;;;;5.01;55.93;96431.34;5013930;28;20258;-70
2021/04/12 11:15:38;;;;;;;5.80;3.30;;;;;;;4.58;53.85;96427.91;4995944;28;20210;-73
2021/04/12 11:18:25;;;;;;;5.07;3.13;;;;;;;4.69;57.29;96422.16;5013923;28;20182;-73
2021/04/12 11:21:06;;;;;;;2.97;2.50;;;;;;;4.44;57.62;96423.56;5013791;28;20171;-75
2021/04/12 11:23:44;;;;;;;4.33;2.80;;;;;;;4.44;58.18;96428.72;4994871;28;20626;-72
2021/04/12 11:26:34;;;;;;;4.80;2.77;;;;;;;4.41;59.46;96430.63;4995669;28;20191;-72
2021/04/12 11:29:32;;;;;;;6.93;3.00;;;;;;;4.67;61.23;96434.25;5013022;28;20653;-72
2021/04/12 11:32:17;;;;;;;4.30;3.30;;;;;;;4.80;59.50;96430.88;5013107;28;20730;-71
2021/04/12 11:34:51;;;;;;;5.90;3.20;;;;;;;4.95;59.36;96428.31;4995762;28;20215;-72
2021/04/12 11:37:21;;;;;;;3.73;2.70;;;;;;;4.99;56.71;96430.59;4979671;28;20183;-72
2021/04/12 11:40:13;;;;;;;4.53;2.57;;;;;;;4.98;57.25;96428.13;5012311;28;20187;-72
2021/04/12 11:42:43;;;;;;;4.07;2.67;;;;;;;4.75;58.63;96437.22;4994783;28;20183;-72
2021/04/12 11:45:16;;;;;;;5.03;2.63;;;;;;;5.05;56.86;96434.56;4995161;28;20195;-71
2021/04/12 11:47:53;;;;;;;9.17;5.77;;;;;;;5.16;54.80;96439.06;4995516;28;20175;-73
2021/04/12 11:50:30;;;;;;;4.67;2.70;;;;;;;5.03;54.01;96438.97;4995629;28;20265;-71
2021/04/12 11:53:14;;;;;;;7.90;4.43;;;;;;;5.36;56.76;96444.66;4995320;28;20237;-76
2021/04/12 11:55:45;;;;;;;3.43;2.73;;;;;;;5.11;55.73;96435.00;5012354;28;20209;-77
2021/04/12 11:58:28;;;;;;;2.87;2.37;;;;;;;5.34;56.35;96441.34;4995715;28;20186;-73
2021/04/12 12:01:27;;;;;;;4.97;3.17;;;;;;;5.16;52.95;96447.63;5011612;28;20675;-74
2021/04/12 12:03:59;;;;;;;3.03;2.37;;;;;;;5.36;54.50;96452.38;4964320;28;20548;-75
2021/04/12 12:06:39;;;;;;;5.57;2.27;;;;;;;5.45;54.87;96450.16;4994815;28;20251;-75
2021/04/12 12:09:13;;;;;;;3.37;2.20;;;;;;;5.17;54.53;96444.13;4995188;28;20175;-71
2021/04/12 12:12:03;;;;;;;5.43;2.37;;;;;;;5.35;54.16;96449.91;4979063;28;20178;-71
2021/04/12 12:14:34;;;;;;;3.70;3.27;;;;;;;5.44;53.75;96451.91;4994594;28;20699;-71
2021/04/12 12:17:02;;;;;;;4.33;3.33;;;;;;;5.45;54.49;96456.16;4994898;28;20248;-71
2021/04/12 12:19:49;;;;;;;2.73;2.40;;;;;;;5.40;51.74;96460.78;4995250;28;20545;-71
2021/04/12 12:23:00;;;;;;;4.33;2.50;;;;;;;5.71;52.83;96458.88;4995060;28;20184;-73
2021/04/12 12:25:48;;;;;;;4.23;3.50;;;;;;;5.82;52.37;96444.38;4994087;28;20230;-72
2021/04/12 12:28:25;;;;;;;11.57;10.47;;;;;;;5.92;49.94;96448.09;4994839;28;20666;-73
2021/04/12 12:31:31;;;;;;;7.50;6.97;;;;;;;6.21;51.30;96442.81;5012556;28;20671;-72
2021/04/12 12:34:04;;;;;;;141.60;81.40;;;;;;;6.47;48.87;96446.28;5003957;28;20206;-75
2021/04/12 12:36:56;;;;;;;5.07;3.57;;;;;;;6.39;46.19;96441.63;5012235;28;20266;-73
2021/04/12 12:39:36;;;;;;;3.13;1.67;;;;;;;6.95;45.89;96449.09;4994945;28;20175;-75
2021/04/12 12:42:06;;;;;;;5.90;2.03;;;;;;;6.78;44.13;96452.81;4994870;28;20175;-72
2021/04/12 12:44:31;;;;;;;3.23;1.73;;;;;;;6.33;46.23;96449.75;5012182;28;20202;-74
2021/04/12 12:47:05;;;;;;;2.60;1.80;;;;;;;6.21;48.69;96453.94;4994757;28;20542;-74
2021/04/12 12:49:32;;;;;;;4.23;2.00;;;;;;;6.08;48.98;96449.66;5007882;28;20191;-73
2021/04/12 12:52:07;;;;;;;3.50;1.73;;;;;;;6.01;50.16;96450.97;5011013;28;20201;-71
2021/04/12 12:54:41;;;;;;;4.10;2.30;;;;;;;5.69;48.81;96464.94;5010406;28;20260;-72
2021/04/12 12:57:14;;;;;;;2.80;2.03;;;;;;;5.47;48.45;96451.72;5011926;28;20638;-73
2021/04/12 12:59:43;;;;;;;3.90;2.47;;;;;;;5.93;49.29;96454.88;5012005;28;20179;-74
2021/04/12 13:02:19;;;;;;;4.33;2.17;;;;;;;6.01;48.22;96456.97;5010828;28;20189;-73
2021/04/12 13:04:57;;;;;;;4.03;1.87;;;;;;;6.42;48.11;96450.91;4994171;28;20206;-75
2021/04/12 13:07:23;;;;;;;3.00;1.60;;;;;;;6.41;46.33;96450.06;5011017;28;20179;-74
2021/04/12 13:09:55;;;;;;;5.87;2.40;;;;;;;6.75;47.81;96448.69;5010468;28;20190;-73
2021/04/12 13:12:20;;;;;;;2.07;1.90;;;;;;;7.15;45.04;96452.91;4994399;28;20662;-73
2021/04/12 13:14:49;;;;;;;1.97;1.77;;;;;;;7.10;44.77;96450.66;4993925;28;20203;-74
2021/04/12 13:17:16;;;;;;;2.47;2.23;;;;;;;7.16;46.23;96462.34;4994042;28;20567;-72
2021/04/12 13:19:49;;;;;;;3.57;2.20;;;;;;;6.76;44.80;96470.16;5011864;28;20182;-74
2021/04/12 13:22:20;;;;;;;3.83;1.80;;;;;;;6.85;46.86;96460.97;4994842;28;20183;-75
2021/04/12 13:24:46;;;;;;;3.57;2.23;;;;;;;7.04;47.14;96467.38;4995687;28;20586;-74
2021/04/12 13:27:13;;;;;;;10.13;8.73;;;;;;;7.18;47.13;96460.47;4993051;28;20202;-73
2021/04/12 13:29:45;;;;;;;4.47;2.40;;;;;;;6.68;47.19;96459.50;4994246;28;20190;-75
2021/04/12 13:32:11;;;;;;;2.63;2.10;;;;;;;7.35;47.03;96457.56;4994083;28;20320;-74
2021/04/12 13:34:54;;;;;;;2.30;1.57;;;;;;;7.47;46.54;96446.34;5011399;28;20219;-76
2021/04/12 13:37:24;;;;;;;2.53;1.87;;;;;;;7.82;45.84;96456.81;4994084;28;20271;-73
2021/04/12 13:40:12;;;;;;;2.37;1.93;;;;;;;7.43;44.24;96454.44;4994314;28;20184;-78
2021/04/12 13:42:47;;;;;;;2.87;2.00;;;;;;;7.82;45.32;96456.81;4999295;28;20605;-75
2021/04/12 13:45:14;;;;;;;3.87;1.50;;;;;;;7.84;42.98;96454.13;4991806;28;20816;-74
2021/04/12 13:47:43;;;;;;;4.30;1.83;;;;;;;8.08;42.16;96456.72;4997725;28;20664;-73
2021/04/12 13:50:13;;;;;;;2.20;1.73;;;;;;;7.99;42.11;96449.63;4997473;28;20182;-75
2021/04/12 13:52:46;;;;;;;2.93;1.70;;;;;;;8.21;43.82;96458.31;4981407;28;20204;-74
2021/04/12 13:55:13;;;;;;;2.63;1.97;;;;;;;8.13;40.18;96452.88;4997684;28;20783;-75
2021/04/12 13:57:43;;;;;;;2.10;1.60;;;;;;;8.40;40.20;96451.84;4997383;28;20669;-75
2021/04/12 14:00:16;;;;;;;1.60;1.50;;;;;;;8.44;40.03;96458.44;5014751;28;20255;-74
2021/04/12 14:02:51;;;;;;;1.73;1.63;;;;;;;8.11;39.55;96452.16;5015150;28;20180;-74
2021/04/12 14:05:20;;;;;;;2.07;1.40;;;;;;;8.22;40.78;96454.81;4996999;28;20236;-75
2021/04/12 14:07:48;;;;;;;1.97;1.37;;;;;;;8.02;41.32;96455.38;4997223;28;20218;-72
2021/04/12 14:10:24;;;;;;;2.23;1.50;;;;;;;8.25;40.16;96453.75;4997951;28;20210;-75
2021/04/12 14:13:02;;;;;;;1.30;1.20;;;;;;;7.73;37.53;96456.63;4981357;28;20187;-75
2021/04/12 14:15:51;;;;;;;1.67;1.30;;;;;;;6.74;38.65;96459.13;5014608;28;20298;-75
2021/04/12 14:18:28;;;;;;;2.40;1.60;;;;;;;7.04;39.89;96466.56;5015370;28;20179;-75
2021/04/12 14:20:53;;;;;;;3.30;1.70;;;;;;;6.68;40.68;96462.09;5013788;28;20667;-74